Time;durP1;ratioP1;P1;durP2;ratioP2;P2;SDS_P1;SDS_P2;PMS_P1;PMS_P2;Temp;Humidity;BMP_temperature;BMP_pressure;BME280_temperature;BME280_humidity;BME280_pressure;Samples;Min_cycle;Max_cycle;Signal;HPM_P1;HPM_P2
2021/06/20 00:00:52;;;;;;;44.50;36.00;;;19.00;99.90;;;;;;5074019;28;20067;-44
2021/06/20 00:03:24;;;;;;;43.78;36.28;;;19.00;99.90;;;;;;5083872;28;20503;-44
2021/06/20 00:05:55;;;;;;;39.15;32.67;;;19.00;99.90;;;;;;5076786;28;20379;-43
2021/06/20 00:08:21;;;;;;;43.35;35.08;;;19.00;99.90;;;;;;5084324;28;20790;-42
2021/06/20 00:10:49;;;;;;;35.00;31.05;;;19.10;99.90;;;;;;5074792;28;20097;-46
2021/06/20 00:13:18;;;;;;;40.63;33.45;;;19.10;99.90;;;;;;5084769;28;20335;-42
2021/06/20 00:15:46;;;;;;;40.58;32.50;;;19.10;99.90;;;;;;5074562;28;20024;-44
2021/06/20 00:18:12;;;;;;;39.03;31.65;;;19.20;99.90;;;;;;5085205;28;20020;-43
2021/06/20 00:20:44;;;;;;;41.72;32.20;;;19.20;99.90;;;;;;5074330;28;20038;-43
2021/06/20 00:23:10;;;;;;;35.60;29.17;;;19.20;99.90;;;;;;5085720;28;20038;-43
2021/06/20 00:25:36;;;;;;;33.38;29.75;;;19.20;99.90;;;;;;5073191;28;20077;-42
2021/06/20 00:28:03;;;;;;;34.33;29.25;;;19.30;99.90;;;;;;5085994;28;20028;-42
2021/06/20 00:30:31;;;;;;;37.35;32.60;;;19.30;99.90;;;;;;5072754;28;20417;-42
2021/06/20 00:32:58;;;;;;;36.65;31.98;;;19.30;99.90;;;;;;5085167;28;20408;-42
2021/06/20 00:35:24;;;;;;;37.00;31.70;;;19.30;99.90;;;;;;5074108;28;20028;-41
2021/06/20 00:37:50;;;;;;;36.88;31.25;;;19.30;99.90;;;;;;5086483;28;20016;-42
2021/06/20 00:40:20;;;;;;;35.90;29.55;;;19.30;99.90;;;;;;5080328;28;20615;-43
2021/06/20 00:42:46;;;;;;;31.23;27.92;;;19.30;99.90;;;;;;5084327;28;20032;-42
2021/06/20 00:45:15;;;;;;;34.10;30.40;;;19.30;99.90;;;;;;5080524;28;20409;-43
2021/06/20 00:47:40;;;;;;;31.65;28.33;;;19.30;99.90;;;;;;5081775;28;20386;-43
2021/06/20 00:50:08;;;;;;;31.65;28.15;;;19.30;99.90;;;;;;5082797;28;20472;-43
2021/06/20 00:52:34;;;;;;;33.78;27.42;;;19.30;99.90;;;;;;5066076;28;20036;-44
2021/06/20 00:55:00;;;;;;;30.42;26.95;;;19.30;99.90;;;;;;5068193;28;20531;-43
2021/06/20 00:57:26;;;;;;;32.88;27.83;;;19.40;99.90;;;;;;5076125;28;20110;-43
2021/06/20 00:59:52;;;;;;;32.72;27.35;;;19.50;99.90;;;;;;5087596;28;20027;-43
2021/06/20 01:02:19;;;;;;;26.58;23.80;;;19.50;99.90;;;;;;5062557;28;20127;-43
2021/06/20 01:04:51;;;;;;;27.25;24.38;;;19.50;99.90;;;;;;5068905;28;20025;-43
2021/06/20 01:07:20;;;;;;;30.10;23.73;;;19.50;99.90;;;;;;5076692;28;20036;-43
2021/06/20 01:09:50;;;;;;;25.67;22.55;;;19.60;99.90;;;;;;5068375;28;20357;-43
2021/06/20 01:12:17;;;;;;;20.80;18.75;;;19.60;99.90;;;;;;5074303;28;20023;-42
2021/06/20 01:14:47;;;;;;;22.17;19.92;;;19.60;99.90;;;;;;5089005;28;20026;-42
2021/06/20 01:17:13;;;;;;;22.33;20.00;;;19.70;99.90;;;;;;5075797;28;20365;-43
2021/06/20 01:19:41;;;;;;;22.25;19.92;;;19.70;99.90;;;;;;5088559;28;20086;-43
2021/06/20 01:22:21;;;;;;;23.60;19.92;;;19.70;99.90;;;;;;5075775;28;20063;-43
2021/06/20 01:24:52;;;;;;;21.67;19.15;;;19.70;99.90;;;;;;5048208;28;20418;-42
2021/06/20 01:27:18;;;;;;;19.60;17.63;;;19.80;99.90;;;;;;5076803;28;20028;-42
2021/06/20 01:29:48;;;;;;;22.20;18.67;;;19.80;99.90;;;;;;5068641;28;20098;-42
2021/06/20 01:32:18;;;;;;;21.35;19.15;;;19.80;99.90;;;;;;5078135;28;20341;-42
2021/06/20 01:34:45;;;;;;;21.15;18.85;;;19.80;99.90;;;;;;5069682;28;20035;-42
2021/06/20 01:37:12;;;;;;;21.20;19.10;;;19.80;99.90;;;;;;5076903;28;20012;-43
2021/06/20 01:39:38;;;;;;;20.27;18.23;;;19.90;99.90;;;;;;5071779;28;20440;-43
2021/06/20 01:42:04;;;;;;;19.70;17.73;;;19.80;99.90;;;;;;5073809;28;20031;-42
2021/06/20 01:44:30;;;;;;;21.52;19.33;;;19.90;99.90;;;;;;5074686;28;20574;-43
2021/06/20 01:46:56;;;;;;;21.52;19.23;;;19.90;99.90;;;;;;5070037;28;20055;-43
2021/06/20 01:49:21;;;;;;;23.35;20.85;;;19.90;99.90;;;;;;5077335;28;20020;-42
2021/06/20 01:51:49;;;;;;;25.20;22.50;;;19.90;99.90;;;;;;5069444;28;20325;-43
2021/06/20 01:54:15;;;;;;;20.42;18.33;;;19.90;99.90;;;;;;5065319;28;20203;-43
2021/06/20 01:56:40;;;;;;;22.67;19.98;;;19.90;99.90;;;;;;5086230;28;20048;-42
2021/06/20 01:59:09;;;;;;;20.40;18.30;;;19.90;99.90;;;;;;5076082;28;20051;-42
2021/06/20 02:01:34;;;;;;;20.90;18.35;;;19.90;99.90;;;;;;5082809;28;20120;-43
2021/06/20 02:04:00;;;;;;;20.35;18.00;;;20.00;99.90;;;;;;5079369;28;20127;-43
2021/06/20 02:06:25;;;;;;;19.65;17.63;;;20.00;99.90;;;;;;5067927;28;20075;-42
2021/06/20 02:08:51;;;;;;;20.58;18.48;;;20.00;99.90;;;;;;5079824;28;20110;-43
2021/06/20 02:11:16;;;;;;;20.92;18.60;;;20.00;99.90;;;;;;5067322;28;20028;-43
2021/06/20 02:13:42;;;;;;;22.20;17.77;;;20.00;99.90;;;;;;5078939;28;20028;-43
2021/06/20 02:16:14;;;;;;;20.17;18.08;;;20.00;99.90;;;;;;5067912;28;20032;-43
2021/06/20 02:18:39;;;;;;;19.73;17.63;;;20.00;99.90;;;;;;5076855;28;20044;-43
2021/06/20 02:21:05;;;;;;;19.13;17.25;;;20.00;99.90;;;;;;5070392;28;20108;-43
2021/06/20 02:23:30;;;;;;;19.67;17.67;;;20.10;99.90;;;;;;5073202;28;20020;-43
2021/06/20 02:25:59;;;;;;;20.90;18.77;;;20.10;99.90;;;;;;5072577;28;20432;-41
2021/06/20 02:28:24;;;;;;;19.33;17.27;;;20.10;99.90;;;;;;5071487;28;20483;-42
2021/06/20 02:30:50;;;;;;;19.58;17.55;;;20.10;99.90;;;;;;5074998;28;20032;-42
2021/06/20 02:33:15;;;;;;;19.25;17.20;;;20.10;99.90;;;;;;5068903;28;20025;-42
2021/06/20 02:35:41;;;;;;;18.88;16.98;;;20.20;99.90;;;;;;5077087;28;20035;-43
2021/06/20 02:38:06;;;;;;;19.38;17.45;;;20.10;99.90;;;;;;5068683;28;20412;-44
2021/06/20 02:40:32;;;;;;;19.08;17.08;;;20.20;99.90;;;;;;5078565;28;20016;-43
2021/06/20 02:42:58;;;;;;;22.40;19.70;;;20.20;99.90;;;;;;5066165;28;20036;-43
2021/06/20 02:45:23;;;;;;;19.88;17.98;;;20.20;99.90;;;;;;5079539;28;20137;-43
2021/06/20 02:47:49;;;;;;;21.27;18.40;;;20.20;99.90;;;;;;5066603;28;20024;-42
2021/06/20 02:50:16;;;;;;;24.33;20.55;;;20.20;99.90;;;;;;5078744;28;20276;-43
2021/06/20 02:52:43;;;;;;;22.38;20.02;;;20.20;99.90;;;;;;5067083;28;20036;-43
2021/06/20 02:55:10;;;;;;;21.27;19.08;;;20.20;99.90;;;;;;5078154;28;20080;-43
2021/06/20 02:57:35;;;;;;;25.23;22.20;;;20.20;99.90;;;;;;5066871;28;20533;-42
2021/06/20 03:00:03;;;;;;;27.92;22.38;;;20.20;99.90;;;;;;5074583;28;20020;-42
2021/06/20 03:02:29;;;;;;;22.63;20.23;;;20.20;99.90;;;;;;5080764;28;20040;-42
2021/06/20 03:04:56;;;;;;;23.30;20.85;;;20.20;99.90;;;;;;5078570;28;20498;-43
2021/06/20 03:07:22;;;;;;;23.17;20.77;;;20.20;99.90;;;;;;5081716;28;20036;-43
2021/06/20 03:09:48;;;;;;;21.58;19.40;;;20.20;99.90;;;;;;5082161;28;20017;-43
2021/06/20 03:12:14;;;;;;;22.17;19.20;;;20.20;99.90;;;;;;5078052;28;20031;-44
2021/06/20 03:14:42;;;;;;;22.85;20.52;;;20.20;99.90;;;;;;5084734;28;20016;-43
2021/06/20 03:17:08;;;;;;;24.88;22.27;;;20.20;99.90;;;;;;5076652;28;20031;-43
2021/06/20 03:19:36;;;;;;;22.98;20.67;;;20.20;99.90;;;;;;5084755;28;20157;-43
2021/06/20 03:22:03;;;;;;;22.00;19.75;;;20.20;99.90;;;;;;5075182;28;20031;-43
2021/06/20 03:24:30;;;;;;;25.77;23.08;;;20.20;99.90;;;;;;5081733;28;20035;-42
2021/06/20 03:26:57;;;;;;;25.88;23.08;;;20.20;99.90;;;;;;5059656;28;20039;-42
2021/06/20 03:29:23;;;;;;;27.60;24.65;;;20.10;99.90;;;;;;5086309;28;20032;-42
2021/06/20 03:31:50;;;;;;;25.55;22.80;;;20.10;99.90;;;;;;5072019;28;20024;-42
2021/06/20 03:34:15;;;;;;;22.67;20.38;;;20.10;99.90;;;;;;5085985;28;20028;-42
2021/06/20 03:36:41;;;;;;;24.92;22.23;;;20.00;99.90;;;;;;5073071;28;20057;-42
2021/06/20 03:39:07;;;;;;;22.80;20.40;;;20.00;99.90;;;;;;5085399;28;20035;-43
2021/06/20 03:41:33;;;;;;;26.98;24.05;;;19.90;99.90;;;;;;5074986;28;20065;-42
2021/06/20 03:43:58;;;;;;;29.92;26.65;;;19.90;99.90;;;;;;5084546;28;20028;-43
2021/06/20 03:46:24;;;;;;;29.02;25.92;;;19.90;99.90;;;;;;5078241;28;20066;-43
2021/06/20 03:48:49;;;;;;;31.20;27.77;;;19.80;99.90;;;;;;5081483;28;20111;-43
2021/06/20 03:51:16;;;;;;;33.20;29.70;;;19.80;99.90;;;;;;5081214;28;20087;-43
2021/06/20 03:53:41;;;;;;;30.83;27.20;;;19.70;99.90;;;;;;5078619;28;20028;-43
2021/06/20 03:56:07;;;;;;;34.78;30.30;;;19.60;99.90;;;;;;5083358;28;20039;-43
2021/06/20 03:58:33;;;;;;;31.27;27.52;;;19.60;99.90;;;;;;5077072;28;20058;-43
2021/06/20 04:00:58;;;;;;;32.63;29.20;;;19.60;99.90;;;;;;5083698;28;20024;-43
2021/06/20 04:03:24;;;;;;;33.45;29.88;;;19.60;99.90;;;;;;5085850;28;20117;-43
2021/06/20 04:05:51;;;;;;;33.33;29.42;;;19.50;99.90;;;;;;5082446;28;20451;-44
2021/06/20 04:08:16;;;;;;;34.00;30.33;;;19.50;99.90;;;;;;5076841;28;20025;-43
2021/06/20 04:10:42;;;;;;;36.05;31.00;;;19.40;99.90;;;;;;5067423;28;20467;-42
2021/06/20 04:13:08;;;;;;;31.58;27.80;;;19.30;99.90;;;;;;5082000;28;20020;-42
2021/06/20 04:15:35;;;;;;;30.45;27.05;;;19.30;99.90;;;;;;5069817;28;20029;-42
2021/06/20 04:18:00;;;;;;;31.83;26.75;;;19.20;99.90;;;;;;5081719;28;20020;-42
2021/06/20 04:20:26;;;;;;;34.00;27.83;;;19.20;99.90;;;;;;5050087;28;20034;-42
2021/06/20 04:22:51;;;;;;;30.08;23.98;;;19.20;99.90;;;;;;5072660;28;20482;-42
2021/06/20 04:25:17;;;;;;;29.92;25.35;;;19.10;99.90;;;;;;5071769;28;20474;-41
2021/06/20 04:27:53;;;;;;;26.75;22.70;;;19.10;99.90;;;;;;5076535;28;20469;-42
2021/06/20 04:30:26;;;;;;;27.30;23.27;;;19.10;99.90;;;;;;5073260;28;20032;-42
2021/06/20 04:32:52;;;;;;;26.27;22.60;;;19.10;99.90;;;;;;5076359;28;20020;-42
2021/06/20 04:35:18;;;;;;;30.73;24.75;;;19.10;99.90;;;;;;5074299;28;20750;-43
2021/06/20 04:37:48;;;;;;;24.27;21.33;;;19.10;99.90;;;;;;5072536;28;20379;-42
2021/06/20 04:40:17;;;;;;;29.38;23.88;;;19.10;99.90;;;;;;5076036;28;20537;-42
2021/06/20 04:43:05;;;;;;;32.40;26.95;;;19.10;99.90;;;;;;5071633;28;20142;-42
2021/06/20 04:45:30;;;;;;;36.10;29.52;;;19.00;99.90;;;;;;5075787;28;20176;-43
2021/06/20 04:47:56;;;;;;;33.03;27.60;;;19.00;99.90;;;;;;5072021;28;20123;-42
2021/06/20 04:50:22;;;;;;;33.65;27.02;;;19.00;99.90;;;;;;5077738;28;20021;-42
2021/06/20 04:52:47;;;;;;;31.55;26.58;;;19.00;99.90;;;;;;5070123;28;20376;-42
2021/06/20 04:55:13;;;;;;;32.22;26.92;;;19.00;99.90;;;;;;5080311;28;20050;-43
2021/06/20 04:57:39;;;;;;;36.90;28.45;;;19.00;99.90;;;;;;5070040;28;20044;-43
2021/06/20 05:00:06;;;;;;;37.40;30.15;;;19.00;99.90;;;;;;5080166;28;20024;-42
2021/06/20 05:02:32;;;;;;;30.88;26.25;;;19.00;99.90;;;;;;5078759;28;20154;-43
2021/06/20 05:04:58;;;;;;;35.60;28.38;;;19.00;99.90;;;;;;5075220;28;20024;-43
2021/06/20 05:07:23;;;;;;;40.42;30.40;;;19.00;99.90;;;;;;5089358;28;20024;-43
2021/06/20 05:09:52;;;;;;;37.80;30.00;;;19.00;99.90;;;;;;5075970;28;20024;-43
2021/06/20 05:12:18;;;;;;;32.88;26.35;;;19.10;99.90;;;;;;5088223;28;20032;-43
2021/06/20 05:14:47;;;;;;;34.47;27.05;;;19.00;99.90;;;;;;5077017;28;20024;-43
2021/06/20 05:17:15;;;;;;;37.38;28.92;;;19.00;99.90;;;;;;5087825;28;20497;-43
2021/06/20 05:19:41;;;;;;;35.78;28.75;;;19.10;99.90;;;;;;5079211;28;20021;-43
2021/06/20 05:22:09;;;;;;;27.80;22.77;;;19.00;99.90;;;;;;5084482;28;20036;-43
2021/06/20 05:24:34;;;;;;;30.77;23.80;;;19.00;99.90;;;;;;5081137;28;20048;-44
2021/06/20 05:27:00;;;;;;;31.48;25.10;;;19.10;99.90;;;;;;5082353;28;20067;-43
2021/06/20 05:29:29;;;;;;;32.63;25.73;;;19.10;99.90;;;;;;5084261;28;20116;-43
2021/06/20 05:31:57;;;;;;;34.25;26.60;;;19.10;99.90;;;;;;5079649;28;20399;-42
2021/06/20 05:34:23;;;;;;;31.85;25.05;;;19.10;99.90;;;;;;5067419;28;20016;-42
2021/06/20 05:36:48;;;;;;;45.17;34.00;;;19.10;99.90;;;;;;5078359;28;20365;-43
2021/06/20 05:39:14;;;;;;;40.00;31.63;;;19.10;99.90;;;;;;5085943;28;20115;-43
2021/06/20 05:41:40;;;;;;;37.58;29.77;;;19.00;99.90;;;;;;5076751;28;20031;-43
2021/06/20 05:44:05;;;;;;;43.85;34.70;;;19.00;99.90;;;;;;5086916;28;20032;-43
2021/06/20 05:46:31;;;;;;;43.40;32.65;;;19.00;99.90;;;;;;5075975;28;20024;-43
2021/06/20 05:48:57;;;;;;;38.92;29.38;;;19.00;99.90;;;;;;5088330;28;20051;-43
2021/06/20 05:51:23;;;;;;;43.53;32.35;;;19.00;99.90;;;;;;5075281;28;20017;-43
2021/06/20 05:53:48;;;;;;;46.80;29.45;;;19.10;99.90;;;;;;5087757;28;20115;-43
2021/06/20 05:56:14;;;;;;;40.53;30.85;;;19.10;99.90;;;;;;5075605;28;20146;-42
2021/06/20 05:58:39;;;;;;;37.10;28.52;;;19.10;99.90;;;;;;5087861;28;20395;-42
2021/06/20 06:01:05;;;;;;;39.40;30.63;;;19.10;99.90;;;;;;5077506;28;20070;-42
2021/06/20 06:03:34;;;;;;;46.25;34.38;;;19.20;99.90;;;;;;5085241;28;20059;-43
2021/06/20 06:06:01;;;;;;;46.53;34.13;;;19.20;99.90;;;;;;5080207;28;20244;-41
2021/06/20 06:08:26;;;;;;;42.20;32.78;;;19.20;99.90;;;;;;5082438;28;20024;-42
2021/06/20 06:10:52;;;;;;;49.55;36.05;;;19.20;99.90;;;;;;5082712;28;20020;-42
2021/06/20 06:13:17;;;;;;;48.40;36.75;;;19.20;99.90;;;;;;5080100;28;20487;-42
2021/06/20 06:15:43;;;;;;;44.65;32.58;;;19.30;99.90;;;;;;5084692;28;20440;-43
2021/06/20 06:18:11;;;;;;;46.60;35.03;;;19.30;99.90;;;;;;5077567;28;20024;-44
2021/06/20 06:20:37;;;;;;;48.78;36.35;;;19.40;99.90;;;;;;5086091;28;20422;-42
2021/06/20 06:23:03;;;;;;;47.92;34.75;;;19.40;99.90;;;;;;5075917;28;20644;-43
2021/06/20 06:25:28;;;;;;;46.80;35.55;;;19.40;99.90;;;;;;5086789;28;20491;-42
2021/06/20 06:27:54;;;;;;;46.08;32.63;;;19.40;99.90;;;;;;5074518;28;20088;-42
2021/06/20 06:30:21;;;;;;;45.40;33.47;;;19.40;99.90;;;;;;5081364;28;20530;-42
2021/06/20 06:32:48;;;;;;;44.63;33.67;;;19.40;99.90;;;;;;5078862;28;20024;-42
2021/06/20 06:35:14;;;;;;;50.17;35.42;;;19.50;99.90;;;;;;5065034;28;20051;-42
2021/06/20 06:37:40;;;;;;;42.55;32.22;;;19.50;99.90;;;;;;5078652;28;20043;-42
2021/06/20 06:40:07;;;;;;;41.13;32.00;;;19.40;99.90;;;;;;5062897;28;20556;-43
2021/06/20 06:42:33;;;;;;;43.38;31.88;;;19.50;99.90;;;;;;5063032;28;20373;-43
2021/06/20 06:44:59;;;;;;;47.20;35.67;;;19.60;99.90;;;;;;5059199;28;20012;-42
2021/06/20 06:47:25;;;;;;;37.58;29.85;;;19.60;99.90;;;;;;5062974;28;20453;-41
2021/06/20 06:49:50;;;;;;;45.85;34.05;;;19.70;99.90;;;;;;5057686;28;20370;-42
2021/06/20 06:52:16;;;;;;;44.17;34.20;;;19.80;99.90;;;;;;5063064;28;20044;-42
2021/06/20 06:54:50;;;;;;;38.03;29.55;;;19.90;99.90;;;;;;5059151;28;20035;-42
2021/06/20 06:57:17;;;;;;;38.53;30.50;;;19.90;99.90;;;;;;5060446;28;20081;-42
2021/06/20 06:59:43;;;;;;;45.53;33.97;;;20.00;99.90;;;;;;5059990;28;20033;-42
2021/06/20 07:02:09;;;;;;;38.75;31.33;;;20.00;99.90;;;;;;5068100;28;20071;-42
2021/06/20 07:04:35;;;;;;;41.33;32.42;;;20.00;99.90;;;;;;5074182;28;20428;-43
2021/06/20 07:07:00;;;;;;;44.42;34.58;;;20.00;99.90;;;;;;5084402;28;20106;-42
2021/06/20 07:09:26;;;;;;;40.90;31.67;;;20.00;99.90;;;;;;5075219;28;20028;-42
2021/06/20 07:11:52;;;;;;;41.90;34.20;;;19.90;99.90;;;;;;5085591;28;20024;-43
2021/06/20 07:14:17;;;;;;;40.42;31.23;;;19.90;99.90;;;;;;5073668;28;20752;-42
2021/06/20 07:16:43;;;;;;;41.35;31.80;;;19.90;99.90;;;;;;5085708;28;20058;-42
2021/06/20 07:19:08;;;;;;;36.22;28.92;;;19.90;99.90;;;;;;5073007;28;20443;-42
2021/06/20 07:21:34;;;;;;;36.45;29.48;;;20.00;99.90;;;;;;5086110;28;20092;-43
2021/06/20 07:24:00;;;;;;;38.20;28.88;;;20.10;99.90;;;;;;5074904;28;20374;-43
2021/06/20 07:26:25;;;;;;;37.53;29.00;;;20.20;99.90;;;;;;5084167;28;20032;-42
2021/06/20 07:28:52;;;;;;;35.00;28.00;;;20.20;99.90;;;;;;5077792;28;20093;-43
2021/06/20 07:31:21;;;;;;;33.10;27.52;;;20.30;99.90;;;;;;5080521;28;20464;-41
2021/06/20 07:33:47;;;;;;;37.58;29.40;;;20.30;99.90;;;;;;5080201;28;20020;-42
2021/06/20 07:36:15;;;;;;;32.33;26.23;;;20.30;99.90;;;;;;5079082;28;20055;-43
2021/06/20 07:38:41;;;;;;;32.45;25.92;;;20.30;99.90;;;;;;5082218;28;20024;-42
2021/06/20 07:41:06;;;;;;;31.27;24.65;;;20.40;99.90;;;;;;5076523;28;20019;-43
2021/06/20 07:43:32;;;;;;;35.10;26.40;;;20.50;99.90;;;;;;5085074;28;20464;-43
2021/06/20 07:45:57;;;;;;;30.45;24.67;;;20.60;99.90;;;;;;5069383;28;20111;-43
2021/06/20 07:48:27;;;;;;;31.73;24.95;;;20.70;99.90;;;;;;5088349;28;20067;-42
2021/06/20 07:50:53;;;;;;;29.92;24.55;;;20.80;99.90;;;;;;5075901;28;20028;-43
2021/06/20 07:53:19;;;;;;;28.20;23.80;;;20.90;99.90;;;;;;5051444;28;20436;-43
2021/06/20 07:55:44;;;;;;;26.95;21.83;;;21.00;99.90;;;;;;5081501;28;20131;-41
2021/06/20 07:58:10;;;;;;;28.60;22.90;;;21.00;99.90;;;;;;5069939;28;20020;-42
2021/06/20 08:00:35;;;;;;;31.58;24.27;;;21.00;99.90;;;;;;5081463;28;20032;-42
2021/06/20 08:03:01;;;;;;;30.27;24.55;;;21.10;99.90;;;;;;5081540;28;20108;-42
2021/06/20 08:05:26;;;;;;;31.75;24.83;;;21.00;99.90;;;;;;5078145;28;20348;-43
2021/06/20 08:07:52;;;;;;;27.45;21.85;;;21.00;99.90;;;;;;5088237;28;20030;-42
2021/06/20 08:10:18;;;;;;;25.92;19.77;;;20.90;99.90;;;;;;5080167;28;20025;-43
2021/06/20 08:12:44;;;;;;;25.00;21.08;;;20.80;99.90;;;;;;5085629;28;20196;-42
2021/06/20 08:15:12;;;;;;;25.92;20.73;;;20.80;99.90;;;;;;5083540;28;20027;-43
2021/06/20 08:17:38;;;;;;;25.30;20.90;;;20.70;99.90;;;;;;5083491;28;20032;-43
2021/06/20 08:20:06;;;;;;;25.98;20.55;;;20.70;99.90;;;;;;5085605;28;20077;-42
2021/06/20 08:22:32;;;;;;;31.35;23.17;;;20.60;99.90;;;;;;5081618;28;20456;-42
2021/06/20 08:24:57;;;;;;;27.25;21.67;;;20.50;99.90;;;;;;5087984;28;20482;-42
2021/06/20 08:27:23;;;;;;;27.55;22.40;;;20.50;99.90;;;;;;5078494;28;20070;-42
2021/06/20 08:29:51;;;;;;;26.95;21.52;;;20.40;99.90;;;;;;5088807;28;20116;-43
2021/06/20 08:32:17;;;;;;;26.52;20.60;;;20.50;99.90;;;;;;5078611;28;20028;-41
2021/06/20 08:34:43;;;;;;;26.83;20.48;;;20.50;99.90;;;;;;5089192;28;20026;-44
2021/06/20 08:37:09;;;;;;;25.02;19.13;;;20.50;99.90;;;;;;5074377;28;20040;-42
2021/06/20 08:39:40;;;;;;;29.05;22.52;;;20.50;99.90;;;;;;5091089;28;20544;-42
2021/06/20 08:42:06;;;;;;;32.33;22.33;;;20.50;99.90;;;;;;5076117;28;20471;-42
2021/06/20 08:44:33;;;;;;;26.35;20.15;;;20.50;99.90;;;;;;5090085;28;20016;-43
2021/06/20 08:47:00;;;;;;;26.27;19.58;;;20.50;99.90;;;;;;5071143;28;20029;-43
2021/06/20 08:49:27;;;;;;;26.83;19.52;;;20.50;99.90;;;;;;5062424;28;20543;-43
2021/06/20 08:51:55;;;;;;;25.42;19.02;;;20.50;99.90;;;;;;5065094;28;20063;-43
2021/06/20 08:54:21;;;;;;;30.27;21.13;;;20.50;99.90;;;;;;5058284;28;20138;-43
2021/06/20 08:56:49;;;;;;;26.77;19.40;;;20.60;99.90;;;;;;5066843;28;20020;-44
2021/06/20 08:59:16;;;;;;;28.90;19.17;;;20.70;99.90;;;;;;5062639;28;20025;-42
2021/06/20 09:01:42;;;;;;;26.08;19.02;;;20.60;99.90;;;;;;5064135;28;20123;-42
2021/06/20 09:04:08;;;;;;;29.50;21.55;;;20.60;99.90;;;;;;5061536;28;20094;-41
2021/06/20 09:06:33;;;;;;;26.98;19.67;;;20.60;99.90;;;;;;5063412;28;20325;-44
2021/06/20 09:09:02;;;;;;;24.27;17.05;;;20.70;99.90;;;;;;5062073;28;20382;-43
2021/06/20 09:11:31;;;;;;;21.70;15.55;;;20.70;99.90;;;;;;5055314;28;20544;-43
2021/06/20 09:14:14;;;;;;;23.70;16.42;;;20.80;99.90;;;;;;5067073;28;20031;-42
2021/06/20 09:16:51;;;;;;;22.67;16.02;;;21.00;99.90;;;;;;5087163;28;20180;-43
2021/06/20 09:19:17;;;;;;;23.95;16.77;;;21.10;99.90;;;;;;5069535;28;20036;-43
2021/06/20 09:21:53;;;;;;;22.95;16.98;;;21.20;99.90;;;;;;5087461;28;20054;-42
2021/06/20 09:24:20;;;;;;;22.83;16.15;;;21.30;99.90;;;;;;5066903;28;20506;-42
2021/06/20 09:26:53;;;;;;;21.00;15.85;;;21.50;99.90;;;;;;5087585;28;20047;-43
2021/06/20 09:29:37;;;;;;;17.00;13.68;;;21.60;99.90;;;;;;5077662;28;20583;-43
2021/06/20 09:32:08;;;;;;;19.20;15.48;;;21.70;99.90;;;;;;5087565;28;20062;-42
2021/06/20 09:34:48;;;;;;;18.85;14.73;;;21.90;99.90;;;;;;5077791;28;20521;-43
2021/06/20 09:37:14;;;;;;;19.35;13.27;;;22.00;99.90;;;;;;5087794;28;20119;-42
2021/06/20 09:39:40;;;;;;;20.10;14.48;;;22.10;99.90;;;;;;5077070;28;20013;-43
2021/06/20 09:42:11;;;;;;;19.38;14.10;;;22.20;99.90;;;;;;5087567;28;20040;-43
2021/06/20 09:44:44;;;;;;;16.33;12.88;;;22.30;99.90;;;;;;5076588;28;20103;-46
2021/06/20 09:47:13;;;;;;;15.73;12.43;;;22.40;99.90;;;;;;5068516;28;20047;-42
2021/06/20 09:49:42;;;;;;;20.38;14.65;;;22.50;99.90;;;;;;5076298;28;20120;-42
2021/06/20 09:52:08;;;;;;;17.38;12.90;;;22.50;99.90;;;;;;5088099;28;20324;-43
2021/06/20 09:54:37;;;;;;;18.52;13.85;;;22.50;99.90;;;;;;5067573;28;20108;-42
2021/06/20 09:57:04;;;;;;;18.20;14.52;;;22.60;99.90;;;;;;5056460;28;20376;-43
2021/06/20 09:59:31;;;;;;;17.20;13.27;;;22.60;99.90;;;;;;5067029;28;20474;-43
2021/06/20 10:02:11;;;;;;;20.27;14.07;;;22.70;99.90;;;;;;5057774;28;20040;-43
2021/06/20 10:04:39;;;;;;;14.98;12.27;;;22.80;99.50;;;;;;5066084;28;20039;-43
2021/06/20 10:07:06;;;;;;;16.33;12.50;;;22.80;99.90;;;;;;5061256;28;20017;-43
2021/06/20 10:09:33;;;;;;;11.27;9.27;;;22.90;99.90;;;;;;5075988;28;20120;-42
2021/06/20 10:11:59;;;;;;;12.98;10.45;;;23.00;99.90;;;;;;5081670;28;20463;-42
2021/06/20 10:14:26;;;;;;;12.55;10.00;;;23.00;99.90;;;;;;5052862;28;20020;-43
2021/06/20 10:16:55;;;;;;;12.05;10.50;;;23.10;99.90;;;;;;5063853;28;20460;-43
2021/06/20 10:19:26;;;;;;;11.30;9.68;;;23.10;99.90;;;;;;5066755;28;20038;-43
2021/06/20 10:22:08;;;;;;;12.18;10.68;;;23.10;99.90;;;;;;5078227;28;20047;-43
2021/06/20 10:24:46;;;;;;;10.50;9.30;;;23.10;99.70;;;;;;5074257;28;20024;-43
2021/06/20 10:27:27;;;;;;;12.52;10.45;;;23.20;99.90;;;;;;5071306;28;20017;-43
2021/06/20 10:29:54;;;;;;;13.13;9.30;;;23.10;98.90;;;;;;5069348;28;20107;-43
2021/06/20 10:32:21;;;;;;;13.27;9.82;;;23.00;99.10;;;;;;5083050;28;20072;-42
2021/06/20 10:34:57;;;;;;;10.30;9.20;;;22.90;98.80;;;;;;5081395;28;20341;-42
2021/06/20 10:37:25;;;;;;;11.65;10.02;;;22.90;99.20;;;;;;5082189;28;20027;-43
2021/06/20 10:39:53;;;;;;;10.40;9.27;;;22.90;99.10;;;;;;5076977;28;20048;-43
2021/06/20 10:42:19;;;;;;;10.98;9.45;;;22.90;99.20;;;;;;5073926;28;20047;-43
2021/06/20 10:44:51;;;;;;;11.70;9.52;;;22.90;99.20;;;;;;5067258;28;20050;-43
2021/06/20 10:47:39;;;;;;;12.50;8.63;;;22.90;99.30;;;;;;5074752;28;20032;-43
2021/06/20 10:50:12;;;;;;;9.15;8.13;;;23.20;99.40;;;;;;5068822;28;20528;-42
2021/06/20 10:52:38;;;;;;;10.30;7.90;;;23.30;99.30;;;;;;5073478;28;20035;-42
2021/06/20 10:55:15;;;;;;;9.23;8.00;;;23.40;99.20;;;;;;5066877;28;20024;-44
2021/06/20 10:57:52;;;;;;;8.43;7.60;;;23.50;99.20;;;;;;5074634;28;20377;-44
2021/06/20 11:00:32;;;;;;;8.52;6.85;;;23.60;98.40;;;;;;5067833;28;20055;-43
2021/06/20 11:03:23;;;;;;;7.75;6.85;;;23.60;98.40;;;;;;5081758;28;20111;-42
2021/06/20 11:05:54;;;;;;;8.82;7.35;;;23.80;98.10;;;;;;5079975;28;20492;-44
2021/06/20 11:08:29;;;;;;;8.10;7.30;;;23.90;97.50;;;;;;5079784;28;20085;-43
2021/06/20 11:11:23;;;;;;;8.65;7.75;;;24.00;97.40;;;;;;5079980;28;20063;-44
2021/06/20 11:14:07;;;;;;;7.13;6.43;;;24.10;96.90;;;;;;5083717;28;20027;-43
2021/06/20 11:16:38;;;;;;;7.50;6.68;;;24.10;97.20;;;;;;5077760;28;20119;-43
2021/06/20 11:19:11;;;;;;;8.63;7.65;;;24.10;97.00;;;;;;5083318;28;20111;-42
2021/06/20 11:21:41;;;;;;;8.57;7.68;;;24.00;96.90;;;;;;5078347;28;20474;-46
2021/06/20 11:24:07;;;;;;;8.02;7.22;;;24.00;97.00;;;;;;5082457;28;20036;-42
2021/06/20 11:26:33;;;;;;;8.77;7.72;;;24.10;97.00;;;;;;5081463;28;20016;-43
2021/06/20 11:29:00;;;;;;;9.10;7.30;;;24.10;97.00;;;;;;5079930;28;20638;-42
2021/06/20 11:31:26;;;;;;;8.57;7.68;;;24.20;96.20;;;;;;5082528;28;20460;-42
2021/06/20 11:33:54;;;;;;;10.80;8.68;;;24.20;96.30;;;;;;5077890;28;20056;-43
2021/06/20 11:36:23;;;;;;;9.10;7.00;;;24.20;96.40;;;;;;5085510;28;20048;-43
2021/06/20 11:38:49;;;;;;;7.43;6.53;;;24.20;96.00;;;;;;5064278;28;20027;-43
2021/06/20 11:41:20;;;;;;;6.65;5.95;;;24.10;96.30;;;;;;5085045;28;20028;-43
2021/06/20 11:43:54;;;;;;;6.50;5.90;;;24.20;96.40;;;;;;5075249;28;20085;-43
2021/06/20 11:46:22;;;;;;;8.07;5.80;;;24.30;96.30;;;;;;5085238;28;20020;-44
2021/06/20 11:49:11;;;;;;;6.95;6.05;;;24.40;96.30;;;;;;5075090;28;20016;-43
2021/06/20 11:51:40;;;;;;;7.30;6.32;;;24.50;95.70;;;;;;5085386;28;20033;-43
2021/06/20 11:54:19;;;;;;;6.70;5.68;;;24.40;95.60;;;;;;5075442;28;20020;-42
2021/06/20 11:57:05;;;;;;;6.18;5.57;;;24.40;95.80;;;;;;5084958;28;20036;-42
2021/06/20 11:59:38;;;;;;;5.75;5.15;;;24.50;96.10;;;;;;5065150;28;20028;-42
2021/06/20 12:02:10;;;;;;;6.10;5.50;;;24.50;95.60;;;;;;5082732;28;20049;-41
2021/06/20 12:04:41;;;;;;;5.07;4.57;;;24.60;95.50;;;;;;5037583;28;20387;-42
2021/06/20 12:07:08;;;;;;;4.60;4.20;;;24.70;95.60;;;;;;5043887;28;20101;-42
2021/06/20 12:09:35;;;;;;;4.97;4.47;;;24.70;95.60;;;;;;5034906;28;20567;-42
2021/06/20 12:12:03;;;;;;;5.15;4.10;;;24.70;95.30;;;;;;5045190;28;20068;-42
2021/06/20 12:14:31;;;;;;;4.80;4.40;;;24.90;94.80;;;;;;5034979;28;20024;-42
2021/06/20 12:17:00;;;;;;;4.63;4.18;;;24.90;94.10;;;;;;5046098;28;20513;-42
2021/06/20 12:19:30;;;;;;;5.70;5.18;;;25.00;94.30;;;;;;5033257;28;20021;-42
2021/06/20 12:22:26;;;;;;;4.25;3.75;;;25.00;93.90;;;;;;5045511;28;20033;-42
2021/06/20 12:25:01;;;;;;;4.28;3.88;;;25.00;94.10;;;;;;5007727;28;20392;-42
2021/06/20 12:27:36;;;;;;;4.93;4.43;;;25.00;94.00;;;;;;5045712;28;20036;-42
2021/06/20 12:30:24;;;;;;;5.70;5.03;;;24.90;94.20;;;;;;5034133;28;20021;-43
2021/06/20 12:32:51;;;;;;;4.90;4.40;;;24.90;94.10;;;;;;5047214;28;20037;-43
2021/06/20 12:35:23;;;;;;;4.85;4.45;;;24.90;94.20;;;;;;5038086;28;20039;-43